Time,TemperatureF,DewpointF,PressureIn,WindDirection,WindDirectionDegrees,WindSpeedMPH,WindSpeedGustMPH,Humidity,HourlyPrecipIn,Conditions,Clouds,dailyrainin,SoftwareType,DateUTC
2013-08-04 00:02:00,62.6,56.0,30.02,NNW,338,1.3,2.9,79,0.00,,,0.00,WUHU216HW,2013-08-04 07:02:00,
2013-08-04 00:07:00,62.5,55.8,30.01,North,0,3.1,4.0,79,0.00,,,0.00,WUHU216HW,2013-08-04 07:07:00,
2013-08-04 00:12:00,62.3,55.6,30.01,NNW,338,2.5,4.0,79,0.00,,,0.00,WUHU216HW,2013-08-04 07:12:00,
2013-08-04 00:17:00,62.3,55.6,30.01,NNE,23,5.8,5.8,79,0.00,,,0.00,WUHU216HW,2013-08-04 07:17:00,
2013-08-04 00:22:00,62.3,55.6,30.01,NNE,23,2.5,5.8,79,0.00,,,0.00,WUHU216HW,2013-08-04 07:22:00,
2013-08-04 00:27:00,62.1,55.5,30.01,North,0,2.9,5.4,79,0.00,,,0.00,WUHU216HW,2013-08-04 07:27:00,
2013-08-04 00:32:00,62.1,55.5,30.01,North,0,4.3,5.4,79,0.00,,,0.00,WUHU216HW,2013-08-04 07:32:00,
2013-08-04 00:37:00,61.9,55.4,30.01,NNE,23,1.6,4.3,79,0.00,,,0.00,WUHU216HW,2013-08-04 07:37:00,
2013-08-04 00:42:00,61.9,55.7,30.01,North,0,1.8,4.3,80,0.00,,,0.00,WUHU216HW,2013-08-04 07:42:00,
2013-08-04 00:47:00,61.7,55.5,30.01,NNE,23,1.8,2.0,80,0.00,,,0.00,WUHU216HW,2013-08-04 07:47:00,
2013-08-04 00:52:00,61.7,55.5,30.01,NNE,23,2.5,2.5,80,0.00,,,0.00,WUHU216HW,2013-08-04 07:52:00,
2013-08-04 00:57:00,61.6,55.4,30.01,North,0,0.7,2.5,80,0.00,,,0.00,WUHU216HW,2013-08-04 07:57:00,
2013-08-04 01:02:00,61.6,55.7,30.01,NNE,23,0.4,2.9,81,0.00,,,0.00,WUHU216HW,2013-08-04 08:02:00,
2013-08-04 01:07:00,61.4,55.5,30.00,NNE,23,2.5,3.1,81,0.00,,,0.00,WUHU216HW,2013-08-04 08:07:00,
2013-08-04 01:12:00,61.4,55.5,30.00,NNE,23,2.7,3.1,81,0.00,,,0.00,WUHU216HW,2013-08-04 08:12:00,
2013-08-04 01:17:00,61.0,55.2,30.00,NNE,23,3.4,3.4,81,0.00,,,0.00,WUHU216HW,2013-08-04 08:17:00,
2013-08-04 01:22:00,61.0,55.2,30.00,North,0,3.1,3.4,81,0.00,,,0.00,WUHU216HW,2013-08-04 08:22:00,
2013-08-04 01:27:00,61.0,55.2,30.00,North,0,1.8,3.1,81,0.00,,,0.00,WUHU216HW,2013-08-04 08:27:00,
2013-08-04 01:32:00,60.8,55.1,30.00,NNE,23,0.4,3.1,81,0.00,,,0.00,WUHU216HW,2013-08-04 08:32:00,
2013-08-04 01:37:00,60.8,55.1,30.00,NNE,23,0.4,1.8,81,0.00,,,0.00,WUHU216HW,2013-08-04 08:37:00,
2013-08-04 01:42:00,60.8,55.1,30.00,North,0,0.2,1.3,81,0.00,,,0.00,WUHU216HW,2013-08-04 08:42:00,
2013-08-04 01:47:00,60.8,55.1,30.00,West,270,0.0,1.1,81,0.00,,,0.00,WUHU216HW,2013-08-04 08:47:00,
2013-08-04 01:52:00,60.8,55.1,30.00,NW,315,0.0,0.7,81,0.00,,,0.00,WUHU216HW,2013-08-04 08:52:00,
2013-08-04 01:57:00,60.8,55.1,30.00,SSE,158,0.2,0.7,81,0.00,,,0.00,WUHU216HW,2013-08-04 08:57:00,
2013-08-04 02:02:00,60.8,55.1,30.00,WNW,293,0.4,0.4,81,0.00,,,0.00,WUHU216HW,2013-08-04 09:02:00,
2013-08-04 02:07:00,60.7,54.9,30.00,NNE,23,1.3,1.3,81,0.00,,,0.00,WUHU216HW,2013-08-04 09:07:00,
2013-08-04 02:12:00,60.5,54.7,30.00,NNE,23,2.5,2.7,81,0.00,,,0.00,WUHU216HW,2013-08-04 09:12:00,
2013-08-04 02:17:00,60.1,54.6,30.00,North,0,0.2,2.7,82,0.00,,,0.00,WUHU216HW,2013-08-04 09:17:00,
2013-08-04 02:22:00,60.1,54.6,30.00,NW,315,0.2,1.1,82,0.00,,,0.00,WUHU216HW,2013-08-04 09:22:00,
2013-08-04 02:27:00,60.1,54.6,30.00,NW,315,0.0,1.1,82,0.00,,,0.00,WUHU216HW,2013-08-04 09:27:00,
2013-08-04 02:32:00,60.1,54.6,30.00,SW,225,0.0,0.0,82,0.00,,,0.00,WUHU216HW,2013-08-04 09:32:00,
2013-08-04 02:37:00,60.1,54.6,30.00,NE,45,0.4,0.4,82,0.00,,,0.00,WUHU216HW,2013-08-04 09:37:00,
2013-08-04 02:42:00,60.1,54.6,30.00,NNE,23,0.4,0.4,82,0.00,,,0.00,WUHU216HW,2013-08-04 09:42:00,
2013-08-04 02:47:00,59.9,54.8,30.00,West,270,0.7,2.7,83,0.00,,,0.00,WUHU216HW,2013-08-04 09:47:00,
2013-08-04 02:52:00,59.8,54.6,30.00,North,0,1.6,2.7,83,0.00,,,0.00,WUHU216HW,2013-08-04 09:52:00,
2013-08-04 02:57:00,59.8,54.6,30.00,North,0,0.0,1.8,83,0.00,,,0.00,WUHU216HW,2013-08-04 09:57:00,
2013-08-04 03:02:00,59.8,54.6,30.00,NNE,23,0.4,1.6,83,0.00,,,0.00,WUHU216HW,2013-08-04 10:02:00,
2013-08-04 03:07:00,59.8,54.6,30.00,North,0,0.4,1.1,83,0.00,,,0.00,WUHU216HW,2013-08-04 10:07:00,
2013-08-04 03:12:00,59.6,54.5,30.00,North,0,0.4,0.9,83,0.00,,,0.00,WUHU216HW,2013-08-04 10:12:00,
2013-08-04 03:17:00,59.6,54.5,30.00,North,0,0.0,0.4,83,0.00,,,0.00,WUHU216HW,2013-08-04 10:17:00,
2013-08-04 03:22:00,59.6,54.5,30.00,North,0,0.0,0.0,83,0.00,,,0.00,WUHU216HW,2013-08-04 10:22:00,
2013-08-04 03:27:00,59.4,54.3,30.00,North,0,0.0,0.0,83,0.00,,,0.00,WUHU216HW,2013-08-04 10:27:00,
2013-08-04 03:32:00,59.4,54.3,29.99,North,0,0.0,0.0,83,0.00,,,0.00,WUHU216HW,2013-08-04 10:32:00,
2013-08-04 03:37:00,59.2,54.1,30.00,North,0,0.0,0.0,83,0.00,,,0.00,WUHU216HW,2013-08-04 10:37:00,
2013-08-04 03:42:00,59.2,54.1,30.00,North,0,0.0,0.0,83,0.00,,,0.00,WUHU216HW,2013-08-04 10:42:00,
2013-08-04 03:47:00,59.0,53.9,30.00,North,0,0.0,0.0,83,0.00,,,0.00,WUHU216HW,2013-08-04 10:47:00,
2013-08-04 03:52:00,59.2,54.1,30.00,North,0,0.0,0.0,83,0.00,,,0.00,WUHU216HW,2013-08-04 10:52:00,
2013-08-04 03:57:00,59.2,54.1,30.00,North,0,0.0,0.0,83,0.00,,,0.00,WUHU216HW,2013-08-04 10:57:00,
2013-08-04 04:02:00,59.2,54.1,30.00,North,0,0.0,0.0,83,0.00,,,0.00,WUHU216HW,2013-08-04 11:02:00,
2013-08-04 04:07:00,59.0,53.9,30.00,North,0,0.0,0.0,83,0.00,,,0.00,WUHU216HW,2013-08-04 11:07:00,
2013-08-04 04:12:00,59.0,53.9,30.00,North,0,0.0,0.0,83,0.00,,,0.00,WUHU216HW,2013-08-04 11:12:00,
2013-08-04 04:17:00,58.9,53.7,29.99,North,0,0.0,0.0,83,0.00,,,0.00,WUHU216HW,2013-08-04 11:17:00,
2013-08-04 04:22:00,58.7,53.6,29.99,North,0,0.0,0.0,83,0.00,,,0.00,WUHU216HW,2013-08-04 11:22:00,
2013-08-04 04:27:00,58.7,53.6,30.00,North,0,0.0,0.0,83,0.00,,,0.00,WUHU216HW,2013-08-04 11:27:00,
2013-08-04 04:32:00,58.7,53.6,30.00,North,0,0.0,0.0,83,0.00,,,0.00,WUHU216HW,2013-08-04 11:32:00,
2013-08-04 04:37:00,58.5,53.4,30.00,North,0,0.0,0.7,83,0.00,,,0.00,WUHU216HW,2013-08-04 11:37:00,
2013-08-04 04:42:00,58.3,53.2,30.00,North,0,0.0,0.7,83,0.00,,,0.00,WUHU216HW,2013-08-04 11:42:00,
2013-08-04 04:47:00,58.3,53.2,30.00,North,0,0.0,0.0,83,0.00,,,0.00,WUHU216HW,2013-08-04 11:47:00,
2013-08-04 04:52:00,58.1,53.0,30.00,North,0,0.0,0.0,83,0.00,,,0.00,WUHU216HW,2013-08-04 11:52:00,
2013-08-04 04:57:00,58.1,53.0,30.00,North,0,0.0,0.0,83,0.00,,,0.00,WUHU216HW,2013-08-04 11:57:00,
2013-08-04 05:02:00,58.0,52.8,30.00,North,0,0.0,0.0,83,0.00,,,0.00,WUHU216HW,2013-08-04 12:02:00,
2013-08-04 05:07:00,58.0,52.8,30.00,North,0,0.0,0.0,83,0.00,,,0.00,WUHU216HW,2013-08-04 12:07:00,
2013-08-04 05:12:00,58.0,53.1,30.00,North,0,0.0,0.0,84,0.00,,,0.00,WUHU216HW,2013-08-04 12:12:00,
2013-08-04 05:17:00,57.8,52.9,30.00,North,0,0.0,0.0,84,0.00,,,0.00,WUHU216HW,2013-08-04 12:17:00,
2013-08-04 05:22:00,57.8,52.9,30.00,North,0,0.0,0.0,84,0.00,,,0.00,WUHU216HW,2013-08-04 12:22:00,
2013-08-04 05:27:00,57.8,52.9,30.00,North,0,0.0,0.7,84,0.00,,,0.00,WUHU216HW,2013-08-04 12:27:00,
2013-08-04 05:32:00,57.6,52.7,30.00,North,0,0.0,0.7,84,0.00,,,0.00,WUHU216HW,2013-08-04 12:32:00,
2013-08-04 05:37:00,57.6,52.7,30.00,North,0,0.0,0.0,84,0.00,,,0.00,WUHU216HW,2013-08-04 12:37:00,
2013-08-04 05:42:00,57.4,52.9,30.00,North,0,0.0,0.0,85,0.00,,,0.00,WUHU216HW,2013-08-04 12:42:00,
2013-08-04 05:47:00,57.4,52.9,30.00,North,0,0.0,0.0,85,0.00,,,0.00,WUHU216HW,2013-08-04 12:47:00,
2013-08-04 05:52:00,57.2,52.7,30.00,North,0,0.0,0.0,85,0.00,,,0.00,WUHU216HW,2013-08-04 12:52:00,
2013-08-04 05:57:00,57.2,52.7,30.00,North,0,0.0,0.0,85,0.00,,,0.00,WUHU216HW,2013-08-04 12:57:00,
2013-08-04 06:02:00,57.2,52.4,30.00,North,0,0.0,0.0,84,0.00,,,0.00,WUHU216HW,2013-08-04 13:02:00,
2013-08-04 06:07:00,57.2,52.4,30.00,North,0,0.0,0.0,84,0.00,,,0.00,WUHU216HW,2013-08-04 13:07:00,
2013-08-04 06:12:00,57.2,52.4,30.00,North,0,0.0,0.0,84,0.00,,,0.00,WUHU216HW,2013-08-04 13:12:00,
2013-08-04 06:17:00,57.2,52.4,30.00,North,0,0.0,0.0,84,0.00,,,0.00,WUHU216HW,2013-08-04 13:17:00,
2013-08-04 06:22:00,57.2,52.4,30.00,North,0,0.0,0.0,84,0.00,,,0.00,WUHU216HW,2013-08-04 13:22:00,
2013-08-04 06:27:00,57.1,52.6,30.01,North,0,0.0,0.0,85,0.00,,,0.00,WUHU216HW,2013-08-04 13:27:00,
2013-08-04 06:32:00,56.9,52.4,30.01,North,0,0.4,0.4,85,0.00,,,0.00,WUHU216HW,2013-08-04 13:32:00,
2013-08-04 06:37:00,57.1,52.6,30.00,North,0,0.0,0.4,85,0.00,,,0.00,WUHU216HW,2013-08-04 13:37:00,
2013-08-04 06:42:00,57.1,52.6,30.01,North,0,0.4,0.9,85,0.00,,,0.00,WUHU216HW,2013-08-04 13:42:00,
2013-08-04 06:47:00,57.2,53.1,30.01,North,0,0.0,0.9,86,0.00,,,0.00,WUHU216HW,2013-08-04 13:47:00,
2013-08-04 06:52:00,57.2,53.1,30.01,North,0,0.0,0.4,86,0.00,,,0.00,WUHU216HW,2013-08-04 13:52:00,
2013-08-04 06:58:00,57.2,53.1,30.01,North,0,0.0,0.0,86,0.00,,,0.00,WUHU216HW,2013-08-04 13:58:00,
2013-08-04 07:03:00,57.4,53.6,30.01,North,0,0.0,0.0,87,0.00,,,0.00,WUHU216HW,2013-08-04 14:03:00,
2013-08-04 07:08:00,57.6,53.7,30.01,SSE,158,0.0,0.2,87,0.00,,,0.00,WUHU216HW,2013-08-04 14:08:00,
2013-08-04 07:13:00,57.6,53.7,30.01,SSE,158,0.0,0.2,87,0.00,,,0.00,WUHU216HW,2013-08-04 14:13:00,
2013-08-04 07:18:00,58.0,54.1,30.01,SSE,158,0.0,0.0,87,0.00,,,0.00,WUHU216HW,2013-08-04 14:18:00,
2013-08-04 07:23:00,58.0,54.1,30.01,SSE,158,0.0,0.0,87,0.00,,,0.00,WUHU216HW,2013-08-04 14:23:00,
2013-08-04 07:28:00,58.1,54.3,30.01,SW,225,0.0,0.4,87,0.00,,,0.00,WUHU216HW,2013-08-04 14:28:00,
2013-08-04 07:33:00,58.3,54.5,30.01,SW,225,0.0,0.4,87,0.00,,,0.00,WUHU216HW,2013-08-04 14:33:00,
2013-08-04 07:38:00,58.7,55.2,30.01,NNW,338,0.7,1.1,88,0.00,,,0.00,WUHU216HW,2013-08-04 14:38:00,
2013-08-04 07:43:00,58.9,55.4,30.02,NNE,23,1.1,2.2,88,0.00,,,0.00,WUHU216HW,2013-08-04 14:43:00,
2013-08-04 07:48:00,59.0,55.5,30.01,North,0,1.8,2.2,88,0.00,,,0.00,WUHU216HW,2013-08-04 14:48:00,
2013-08-04 07:53:00,59.4,55.5,30.02,NNE,23,2.0,3.4,87,0.00,,,0.00,WUHU216HW,2013-08-04 14:53:00,
2013-08-04 07:57:00,59.4,55.5,30.02,North,0,1.3,3.8,87,0.00,,,0.00,WUHU216HW,2013-08-04 14:57:00,
2013-08-04 08:03:00,59.8,55.9,30.02,NW,315,1.3,3.8,87,0.00,,,0.00,WUHU216HW,2013-08-04 15:03:00,
2013-08-04 08:08:00,60.1,56.3,30.01,North,0,3.6,3.6,87,0.00,,,0.00,WUHU216HW,2013-08-04 15:08:00,
2013-08-04 08:13:00,60.5,56.6,30.01,NNE,23,1.6,3.6,87,0.00,,,0.00,WUHU216HW,2013-08-04 15:13:00,
2013-08-04 08:18:00,60.7,56.5,30.01,North,0,1.6,4.0,86,0.00,,,0.00,WUHU216HW,2013-08-04 15:18:00,
2013-08-04 08:23:00,60.8,56.7,30.01,NW,315,1.8,4.0,86,0.00,,,0.00,WUHU216HW,2013-08-04 15:23:00,
2013-08-04 08:28:00,61.2,56.7,30.01,NNE,23,2.7,3.4,85,0.00,,,0.00,WUHU216HW,2013-08-04 15:28:00,
2013-08-04 08:33:00,61.4,56.9,30.01,NNE,23,1.1,2.7,85,0.00,,,0.00,WUHU216HW,2013-08-04 15:33:00,
2013-08-04 08:38:00,61.6,57.1,30.01,North,0,1.8,2.9,85,0.00,,,0.00,WUHU216HW,2013-08-04 15:38:00,
2013-08-04 08:43:00,61.9,57.3,30.01,North,0,0.4,2.9,85,0.00,,,0.00,WUHU216HW,2013-08-04 15:43:00,
2013-08-04 08:48:00,62.3,57.3,30.01,WNW,293,0.7,2.2,84,0.00,,,0.00,WUHU216HW,2013-08-04 15:48:00,
2013-08-04 08:53:00,62.6,57.7,30.01,NW,315,3.1,3.1,84,0.00,,,0.00,WUHU216HW,2013-08-04 15:53:00,
2013-08-04 08:58:00,63.2,57.9,30.01,NNE,23,3.1,3.4,83,0.00,,,0.00,WUHU216HW,2013-08-04 15:58:00,
2013-08-04 09:03:00,63.5,58.0,30.01,NW,315,2.0,3.4,82,0.00,,,0.00,WUHU216HW,2013-08-04 16:03:00,
2013-08-04 09:08:00,63.7,58.2,30.01,North,0,0.4,3.4,82,0.00,,,0.00,WUHU216HW,2013-08-04 16:08:00,
2013-08-04 09:12:00,64.1,58.2,30.01,NNE,23,2.0,3.1,81,0.00,,,0.00,WUHU216HW,2013-08-04 16:12:00,
2013-08-04 09:18:00,64.1,58.5,30.01,NE,45,1.6,2.7,82,0.00,,,0.00,WUHU216HW,2013-08-04 16:18:00,
2013-08-04 09:23:00,65.2,59.5,30.01,NNW,338,2.5,3.1,82,0.00,,,0.00,WUHU216HW,2013-08-04 16:23:00,
2013-08-04 09:28:00,65.7,59.8,30.01,ESE,113,0.4,3.1,81,0.00,,,0.00,WUHU216HW,2013-08-04 16:28:00,
2013-08-04 09:32:00,66.4,60.5,30.01,SSE,158,0.4,1.6,81,0.00,,,0.00,WUHU216HW,2013-08-04 16:32:00,
2013-08-04 09:38:00,66.6,60.7,30.00,North,0,1.1,1.1,81,0.00,,,0.00,WUHU216HW,2013-08-04 16:38:00,
2013-08-04 09:43:00,67.3,60.7,30.00,North,0,1.6,1.6,79,0.00,,,0.00,WUHU216HW,2013-08-04 16:43:00,
2013-08-04 09:48:00,67.7,60.7,30.00,NW,315,0.7,1.6,78,0.00,,,0.00,WUHU216HW,2013-08-04 16:48:00,
2013-08-04 09:53:00,67.5,60.0,30.00,WNW,293,0.7,2.5,77,0.00,,,0.00,WUHU216HW,2013-08-04 16:53:00,
2013-08-04 09:58:00,67.7,60.2,30.00,ENE,68,2.7,2.7,77,0.00,,,0.00,WUHU216HW,2013-08-04 16:58:00,
2013-08-04 10:03:00,68.0,60.6,30.00,NE,45,1.1,4.0,77,0.00,,,0.00,WUHU216HW,2013-08-04 17:03:00,
2013-08-04 10:08:00,68.4,60.9,30.00,NE,45,3.6,4.0,77,0.00,,,0.00,WUHU216HW,2013-08-04 17:08:00,
2013-08-04 10:13:00,68.9,61.0,30.00,ESE,113,3.4,3.6,76,0.00,,,0.00,WUHU216HW,2013-08-04 17:13:00,
2013-08-04 10:18:00,69.5,61.1,30.00,ENE,68,0.4,3.4,75,0.00,,,0.00,WUHU216HW,2013-08-04 17:18:00,
2013-08-04 10:23:00,69.7,60.9,30.00,North,0,1.3,3.4,74,0.00,,,0.00,WUHU216HW,2013-08-04 17:23:00,
2013-08-04 10:28:00,69.8,61.1,30.00,East,90,1.1,2.5,74,0.00,,,0.00,WUHU216HW,2013-08-04 17:28:00,
2013-08-04 10:33:00,70.0,60.9,30.00,WSW,248,1.1,3.4,73,0.00,,,0.00,WUHU216HW,2013-08-04 17:33:00,
2013-08-04 10:38:00,70.0,61.3,30.00,East,90,1.6,3.4,74,0.00,,,0.00,WUHU216HW,2013-08-04 17:38:00,
2013-08-04 10:43:00,70.6,61.8,30.00,ENE,68,1.1,1.6,74,0.00,,,0.00,WUHU216HW,2013-08-04 17:43:00,
2013-08-04 10:48:00,70.6,61.8,29.99,SE,135,1.3,1.6,74,0.00,,,0.00,WUHU216HW,2013-08-04 17:48:00,
2013-08-04 10:53:00,70.9,62.2,30.00,ENE,68,1.8,2.5,74,0.00,,,0.00,WUHU216HW,2013-08-04 17:53:00,
2013-08-04 10:58:00,71.6,61.7,30.00,ENE,68,1.3,3.6,71,0.00,,,0.00,WUHU216HW,2013-08-04 17:58:00,
2013-08-04 11:03:00,72.0,62.5,30.00,NE,45,2.0,3.6,72,0.00,,,0.00,WUHU216HW,2013-08-04 18:03:00,
2013-08-04 11:08:00,72.0,61.3,30.00,NNW,338,4.0,4.0,69,0.00,,,0.00,WUHU216HW,2013-08-04 18:08:00,
2013-08-04 11:13:00,71.8,61.6,29.99,NNE,23,5.4,5.4,70,0.00,,,0.00,WUHU216HW,2013-08-04 18:13:00,
2013-08-04 11:18:00,71.8,61.6,29.99,North,0,1.3,6.3,70,0.00,,,0.00,WUHU216HW,2013-08-04 18:18:00,
2013-08-04 11:23:00,72.4,61.7,29.99,ENE,68,4.5,6.3,69,0.00,,,0.00,WUHU216HW,2013-08-04 18:23:00,
2013-08-04 11:28:00,72.4,62.1,29.99,East,90,1.6,4.5,70,0.00,,,0.00,WUHU216HW,2013-08-04 18:28:00,
2013-08-04 11:33:00,72.9,62.2,29.99,SE,135,2.9,4.0,69,0.00,,,0.00,WUHU216HW,2013-08-04 18:33:00,
2013-08-04 11:38:00,73.4,62.3,29.99,East,90,1.1,4.7,68,0.00,,,0.00,WUHU216HW,2013-08-04 18:38:00,
2013-08-04 11:43:00,73.4,62.3,29.99,NNE,23,4.0,4.7,68,0.00,,,0.00,WUHU216HW,2013-08-04 18:43:00,
2013-08-04 11:48:00,73.4,61.8,29.99,ENE,68,2.2,6.5,67,0.00,,,0.00,WUHU216HW,2013-08-04 18:48:00,
2013-08-04 11:53:00,73.8,61.8,29.99,NNE,23,5.1,6.5,66,0.00,,,0.00,WUHU216HW,2013-08-04 18:53:00,
2013-08-04 11:58:00,73.4,61.4,29.99,NNW,338,2.0,5.1,66,0.00,,,0.00,WUHU216HW,2013-08-04 18:58:00,
2013-08-04 12:03:00,73.4,61.4,29.99,North,0,5.1,5.1,66,0.00,,,0.00,WUHU216HW,2013-08-04 19:03:00,
2013-08-04 12:08:00,73.6,62.0,29.99,ESE,113,1.1,5.1,67,0.00,,,0.00,WUHU216HW,2013-08-04 19:08:00,
2013-08-04 12:13:00,73.8,62.7,29.99,East,90,1.8,4.5,68,0.00,,,0.00,WUHU216HW,2013-08-04 19:13:00,
2013-08-04 12:18:00,74.3,62.2,29.99,North,0,4.0,5.8,66,0.00,,,0.00,WUHU216HW,2013-08-04 19:18:00,
2013-08-04 12:22:00,74.7,62.6,29.99,East,90,1.6,5.8,66,0.00,,,0.00,WUHU216HW,2013-08-04 19:22:00,
2013-08-04 12:28:00,74.7,62.1,29.99,West,270,1.1,5.1,65,0.00,,,0.00,WUHU216HW,2013-08-04 19:28:00,
2013-08-04 12:33:00,74.7,62.6,29.98,ESE,113,1.1,3.4,66,0.00,,,0.00,WUHU216HW,2013-08-04 19:33:00,
2013-08-04 12:38:00,74.9,62.3,29.98,South,180,4.3,5.6,65,0.00,,,0.00,WUHU216HW,2013-08-04 19:38:00,
2013-08-04 12:43:00,75.1,62.9,29.98,NNW,338,0.7,5.6,66,0.00,,,0.00,WUHU216HW,2013-08-04 19:43:00,
2013-08-04 12:48:00,75.2,61.7,29.98,North,0,2.9,4.5,63,0.00,,,0.00,WUHU216HW,2013-08-04 19:48:00,
2013-08-04 12:53:00,75.2,61.7,29.98,North,0,7.4,7.4,63,0.00,,,0.00,WUHU216HW,2013-08-04 19:53:00,
2013-08-04 12:57:00,74.9,60.6,29.99,NW,315,1.8,7.4,61,0.00,,,0.00,WUHU216HW,2013-08-04 19:57:00,
2013-08-04 13:02:00,74.7,60.9,29.99,NW,315,2.2,4.3,62,0.00,,,0.00,WUHU216HW,2013-08-04 20:02:00,
2013-08-04 13:07:00,74.9,61.0,29.99,SW,225,4.7,4.7,62,0.00,,,0.00,WUHU216HW,2013-08-04 20:07:00,
2013-08-04 13:13:00,75.2,60.5,29.99,North,0,6.5,6.5,60,0.00,,,0.00,WUHU216HW,2013-08-04 20:13:00,
2013-08-04 13:18:00,75.2,60.5,29.98,NNE,23,4.5,6.5,60,0.00,,,0.00,WUHU216HW,2013-08-04 20:18:00,
2013-08-04 13:23:00,75.4,61.5,29.98,ENE,68,1.1,4.5,62,0.00,,,0.00,WUHU216HW,2013-08-04 20:23:00,
2013-08-04 13:28:00,75.6,61.2,29.98,NNE,23,6.3,6.3,61,0.00,,,0.00,WUHU216HW,2013-08-04 20:28:00,
2013-08-04 13:33:00,76.3,61.9,29.98,North,0,6.5,6.5,61,0.00,,,0.00,WUHU216HW,2013-08-04 20:33:00,
2013-08-04 13:38:00,76.5,62.1,29.97,North,0,1.3,6.5,61,0.00,,,0.00,WUHU216HW,2013-08-04 20:38:00,
2013-08-04 13:43:00,76.7,62.2,29.98,East,90,3.4,4.0,61,0.00,,,0.00,WUHU216HW,2013-08-04 20:43:00,
2013-08-04 13:47:00,77.0,62.1,29.97,SW,225,1.3,4.0,60,0.00,,,0.00,WUHU216HW,2013-08-04 20:47:00,
2013-08-04 13:52:00,77.0,61.6,29.97,NW,315,1.8,6.3,59,0.00,,,0.00,WUHU216HW,2013-08-04 20:52:00,
2013-08-04 13:59:00,76.7,61.3,29.97,NW,315,1.8,6.3,59,0.00,,,0.00,WUHU216HW,2013-08-04 20:59:00,
2013-08-04 14:04:00,76.9,60.9,29.96,North,0,5.4,8.5,58,0.00,,,0.00,WUHU216HW,2013-08-04 21:04:00,
2013-08-04 14:09:00,76.9,61.9,29.97,NW,315,2.9,8.5,60,0.00,,,0.00,WUHU216HW,2013-08-04 21:09:00,
2013-08-04 14:14:00,77.0,61.1,29.97,East,90,2.0,5.4,58,0.00,,,0.00,WUHU216HW,2013-08-04 21:14:00,
2013-08-04 14:19:00,77.0,60.6,29.97,NNE,23,3.4,8.3,57,0.00,,,0.00,WUHU216HW,2013-08-04 21:19:00,
2013-08-04 14:24:00,77.2,61.7,29.96,ESE,113,4.0,8.3,59,0.00,,,0.00,WUHU216HW,2013-08-04 21:24:00,
2013-08-04 14:29:00,77.4,61.9,29.96,North,0,3.4,5.4,59,0.00,,,0.00,WUHU216HW,2013-08-04 21:29:00,
2013-08-04 14:34:00,77.8,60.8,29.96,NNE,23,5.4,5.4,56,0.00,,,0.00,WUHU216HW,2013-08-04 21:34:00,
2013-08-04 14:39:00,77.8,61.3,29.96,North,0,1.3,5.4,57,0.00,,,0.00,WUHU216HW,2013-08-04 21:39:00,
2013-08-04 14:44:00,77.8,61.8,29.96,North,0,2.7,5.1,58,0.00,,,0.00,WUHU216HW,2013-08-04 21:44:00,
2013-08-04 14:49:00,77.8,61.3,29.95,WNW,293,4.5,5.1,57,0.00,,,0.00,WUHU216HW,2013-08-04 21:49:00,
2013-08-04 14:54:00,78.1,61.7,29.95,WSW,248,1.8,4.5,57,0.00,,,0.00,WUHU216HW,2013-08-04 21:54:00,
2013-08-04 14:59:00,78.5,61.5,29.95,North,0,1.3,7.6,56,0.00,,,0.00,WUHU216HW,2013-08-04 21:59:00,
2013-08-04 15:04:00,78.7,61.1,29.95,NNW,338,4.9,7.6,55,0.00,,,0.00,WUHU216HW,2013-08-04 22:04:00,
2013-08-04 15:08:00,78.8,62.4,29.95,NNE,23,2.7,4.9,57,0.00,,,0.00,WUHU216HW,2013-08-04 22:08:00,
2013-08-04 15:14:00,78.8,61.3,29.95,North,0,4.5,5.4,55,0.00,,,0.00,WUHU216HW,2013-08-04 22:14:00,
2013-08-04 15:19:00,78.7,61.7,29.94,SSW,203,1.3,5.4,56,0.00,,,0.00,WUHU216HW,2013-08-04 22:19:00,
2013-08-04 15:24:00,78.8,61.3,29.94,NW,315,1.8,4.9,55,0.00,,,0.00,WUHU216HW,2013-08-04 22:24:00,
2013-08-04 15:29:00,79.0,60.9,29.94,North,0,4.3,4.9,54,0.00,,,0.00,WUHU216HW,2013-08-04 22:29:00,
2013-08-04 15:33:00,79.2,61.7,29.94,NNE,23,5.1,5.1,55,0.00,,,0.00,WUHU216HW,2013-08-04 22:33:00,
2013-08-04 15:39:00,79.6,61.9,29.94,NW,315,5.8,5.8,55,0.00,,,0.00,WUHU216HW,2013-08-04 22:39:00,
2013-08-04 15:44:00,79.7,61.0,29.94,North,0,3.1,5.8,53,0.00,,,0.00,WUHU216HW,2013-08-04 22:44:00,
2013-08-04 15:49:00,79.9,61.2,29.94,NNE,23,2.2,5.4,53,0.00,,,0.00,WUHU216HW,2013-08-04 22:49:00,
2013-08-04 15:54:00,79.9,61.2,29.93,NW,315,4.0,4.0,53,0.00,,,0.00,WUHU216HW,2013-08-04 22:54:00,
2013-08-04 15:59:00,79.9,60.7,29.93,NNW,338,2.2,4.0,52,0.00,,,0.00,WUHU216HW,2013-08-04 22:59:00,
2013-08-04 16:04:00,79.6,60.9,29.93,NNW,338,0.7,4.0,53,0.00,,,0.00,WUHU216HW,2013-08-04 23:04:00,
2013-08-04 18:45:00,78.5,57.8,29.91,North,0,1.6,1.6,49,0.00,,,0.00,WUHU216HW,2013-08-05 01:45:00,
2013-08-04 18:50:00,78.5,58.3,29.91,North,0,1.3,3.4,50,0.00,,,0.00,WUHU216HW,2013-08-05 01:50:00,
2013-08-04 18:55:00,78.5,58.3,29.91,NNE,23,3.8,3.8,50,0.00,,,0.00,WUHU216HW,2013-08-05 01:55:00,
2013-08-04 19:00:00,78.5,58.3,29.90,North,0,1.6,3.8,50,0.00,,,0.00,WUHU216HW,2013-08-05 02:00:00,
2013-08-04 19:05:00,78.5,57.8,29.90,North,0,1.8,4.3,49,0.00,,,0.00,WUHU216HW,2013-08-05 02:05:00,
2013-08-04 19:10:00,78.5,57.8,29.90,SW,225,1.1,4.3,49,0.00,,,0.00,WUHU216HW,2013-08-05 02:10:00,
2013-08-04 19:15:00,78.5,57.2,29.90,WNW,293,4.7,4.7,48,0.00,,,0.00,WUHU216HW,2013-08-05 02:15:00,
2013-08-04 19:20:00,78.3,57.0,29.90,South,180,1.6,5.4,48,0.00,,,0.00,WUHU216HW,2013-08-05 02:20:00,
2013-08-04 19:25:00,78.1,57.4,29.90,WNW,293,1.6,5.4,49,0.00,,,0.00,WUHU216HW,2013-08-05 02:25:00,
2013-08-04 19:29:00,78.1,58.1,29.90,NW,315,2.5,3.1,50,0.00,,,0.00,WUHU216HW,2013-08-05 02:29:00,
2013-08-04 19:35:00,78.1,58.1,29.90,North,0,1.8,3.1,50,0.00,,,0.00,WUHU216HW,2013-08-05 02:35:00,
2013-08-04 19:40:00,78.5,58.9,29.90,NNE,23,2.0,3.1,51,0.00,,,0.00,WUHU216HW,2013-08-05 02:40:00,
2013-08-04 19:45:00,79.2,59.5,29.90,NNE,23,0.2,3.1,51,0.00,,,0.00,WUHU216HW,2013-08-05 02:45:00,
2013-08-04 19:50:00,78.8,59.2,29.90,NW,315,0.9,2.9,51,0.00,,,0.00,WUHU216HW,2013-08-05 02:50:00,
2013-08-04 19:55:00,78.1,59.0,29.91,WNW,293,2.0,4.7,52,0.00,,,0.00,WUHU216HW,2013-08-05 02:55:00,
2013-08-04 20:00:00,77.2,58.8,29.91,NW,315,1.3,4.7,53,0.00,,,0.00,WUHU216HW,2013-08-05 03:00:00,
2013-08-04 20:04:00,76.5,58.6,29.91,North,0,1.8,4.0,54,0.00,,,0.00,WUHU216HW,2013-08-05 03:04:00,
2013-08-04 20:10:00,75.6,58.8,29.91,North,0,3.4,4.0,56,0.00,,,0.00,WUHU216HW,2013-08-05 03:10:00,
2013-08-04 20:15:00,74.7,59.0,29.91,North,0,1.3,4.0,58,0.00,,,0.00,WUHU216HW,2013-08-05 03:15:00,
2013-08-04 20:20:00,74.2,58.9,29.91,NNW,338,1.1,3.1,59,0.00,,,0.00,WUHU216HW,2013-08-05 03:20:00,
2013-08-04 20:25:00,73.6,58.9,29.91,NW,315,1.8,3.1,60,0.00,,,0.00,WUHU216HW,2013-08-05 03:25:00,
2013-08-04 20:30:00,73.3,59.0,29.91,North,0,0.7,3.1,61,0.00,,,0.00,WUHU216HW,2013-08-05 03:30:00,
2013-08-04 20:35:00,73.1,58.8,29.91,NW,315,0.4,3.1,61,0.00,,,0.00,WUHU216HW,2013-08-05 03:35:00,
2013-08-04 20:40:00,72.9,59.0,29.91,NNW,338,1.1,3.1,62,0.00,,,0.00,WUHU216HW,2013-08-05 03:40:00,
2013-08-04 20:45:00,72.7,59.0,29.91,North,0,2.5,2.5,62,0.00,,,0.00,WUHU216HW,2013-08-05 03:45:00,
2013-08-04 20:49:00,72.5,59.2,29.91,North,0,1.1,2.5,63,0.00,,,0.00,WUHU216HW,2013-08-05 03:49:00,
2013-08-04 20:54:00,72.2,58.9,29.91,North,0,1.8,3.4,63,0.00,,,0.00,WUHU216HW,2013-08-05 03:54:00,
2013-08-04 20:59:00,72.0,59.1,29.92,North,0,4.0,4.0,64,0.00,,,0.00,WUHU216HW,2013-08-05 03:59:00,
2013-08-04 21:01:00,72.0,58.7,29.92,WNW,293,0.4,4.0,63,0.00,,,0.00,WUHU216HW,2013-08-05 04:01:00,
2013-08-04 21:02:00,72.0,58.7,29.92,NE,45,0.9,4.0,63,0.00,,,0.00,WUHU216HW,2013-08-05 04:02:00,
2013-08-04 21:07:00,71.8,58.5,29.92,NNE,23,1.8,4.0,63,0.00,,,0.00,WUHU216HW,2013-08-05 04:07:00,
2013-08-04 21:12:00,71.8,59.0,29.92,NNE,23,0.4,2.9,64,0.00,,,0.00,WUHU216HW,2013-08-05 04:12:00,
2013-08-04 21:17:00,71.5,58.6,29.92,NW,315,3.1,3.1,64,0.00,,,0.00,WUHU216HW,2013-08-05 04:17:00,
2013-08-04 21:22:00,71.3,58.4,29.92,NNE,23,2.5,3.1,64,0.00,,,0.00,WUHU216HW,2013-08-05 04:22:00,
2013-08-04 21:27:00,71.3,58.9,29.93,North,0,0.9,2.7,65,0.00,,,0.00,WUHU216HW,2013-08-05 04:27:00,
2013-08-04 21:32:00,71.1,58.3,29.93,NNE,23,2.2,2.7,64,0.00,,,0.00,WUHU216HW,2013-08-05 04:32:00,
2013-08-04 21:37:00,70.7,58.3,29.93,North,0,1.6,3.1,65,0.00,,,0.00,WUHU216HW,2013-08-05 04:37:00,
2013-08-04 21:42:00,70.4,58.1,29.93,North,0,1.1,3.1,65,0.00,,,0.00,WUHU216HW,2013-08-05 04:42:00,
2013-08-04 21:47:00,70.2,57.9,29.93,North,0,1.1,2.2,65,0.00,,,0.00,WUHU216HW,2013-08-05 04:47:00,
2013-08-04 21:52:00,70.2,58.2,29.93,North,0,0.2,1.3,66,0.00,,,0.00,WUHU216HW,2013-08-05 04:52:00,
2013-08-04 21:57:00,70.0,58.5,29.93,North,0,1.1,2.2,67,0.00,,,0.00,WUHU216HW,2013-08-05 04:57:00,
2013-08-04 22:02:00,69.8,58.3,29.93,NW,315,0.9,2.5,67,0.00,,,0.00,WUHU216HW,2013-08-05 05:02:00,
2013-08-04 22:07:00,69.8,58.3,29.93,NNE,23,1.1,2.5,67,0.00,,,0.00,WUHU216HW,2013-08-05 05:07:00,
2013-08-04 22:12:00,69.7,58.1,29.93,NE,45,2.2,2.2,67,0.00,,,0.00,WUHU216HW,2013-08-05 05:12:00,
2013-08-04 22:17:00,69.5,58.0,29.93,NNW,338,1.3,2.5,67,0.00,,,0.00,WUHU216HW,2013-08-05 05:17:00,
2013-08-04 22:22:00,69.5,58.0,29.93,NNE,23,0.0,2.5,67,0.00,,,0.00,WUHU216HW,2013-08-05 05:22:00,
2013-08-04 22:27:00,69.5,58.0,29.93,North,0,0.4,2.5,67,0.00,,,0.00,WUHU216HW,2013-08-05 05:27:00,
2013-08-04 22:32:00,69.3,58.2,29.93,North,0,1.8,1.8,68,0.00,,,0.00,WUHU216HW,2013-08-05 05:32:00,
2013-08-04 22:37:00,69.1,58.1,29.94,North,0,1.6,1.8,68,0.00,,,0.00,WUHU216HW,2013-08-05 05:37:00,
2013-08-04 22:42:00,68.9,58.0,29.94,NNE,23,1.6,2.5,68,0.00,,,0.00,WUHU216HW,2013-08-05 05:42:00,
2013-08-04 22:47:00,68.8,57.8,29.94,NNE,23,4.7,4.7,68,0.00,,,0.00,WUHU216HW,2013-08-05 05:47:00,
2013-08-04 22:52:00,68.8,57.8,29.94,North,0,1.3,4.7,68,0.00,,,0.00,WUHU216HW,2013-08-05 05:52:00,
2013-08-04 22:57:00,68.6,58.1,29.94,North,0,1.3,1.8,69,0.00,,,0.00,WUHU216HW,2013-08-05 05:57:00,
2013-08-04 23:02:00,68.4,57.9,29.94,North,0,0.4,2.2,69,0.00,,,0.00,WUHU216HW,2013-08-05 06:02:00,
2013-08-04 23:07:00,68.4,57.9,29.94,North,0,1.6,2.2,69,0.00,,,0.00,WUHU216HW,2013-08-05 06:07:00,
2013-08-04 23:12:00,68.4,57.9,29.94,North,0,1.3,2.2,69,0.00,,,0.00,WUHU216HW,2013-08-05 06:12:00,
2013-08-04 23:17:00,68.2,57.7,29.94,North,0,0.2,2.0,69,0.00,,,0.00,WUHU216HW,2013-08-05 06:17:00,
2013-08-04 23:22:00,68.2,57.7,29.94,North,0,0.4,1.6,69,0.00,,,0.00,WUHU216HW,2013-08-05 06:22:00,
2013-08-04 23:27:00,68.0,57.5,29.94,NNE,23,1.1,1.1,69,0.00,,,0.00,WUHU216HW,2013-08-05 06:27:00,
2013-08-04 23:32:00,68.0,57.5,29.94,NNE,23,0.0,1.1,69,0.00,,,0.00,WUHU216HW,2013-08-05 06:32:00,
2013-08-04 23:37:00,68.0,58.0,29.94,ESE,113,0.0,0.7,70,0.00,,,0.00,WUHU216HW,2013-08-05 06:37:00,
2013-08-04 23:42:00,67.9,57.8,29.94,North,0,0.2,1.8,70,0.00,,,0.00,WUHU216HW,2013-08-05 06:42:00,
2013-08-04 23:47:00,67.7,57.6,29.94,North,0,0.0,1.8,70,0.00,,,0.00,WUHU216HW,2013-08-05 06:47:00,
2013-08-04 23:52:00,67.3,57.2,29.94,North,0,0.9,1.1,70,0.00,,,0.00,WUHU216HW,2013-08-05 06:52:00,
2013-08-04 23:57:00,67.3,57.2,29.94,North,0,0.0,1.3,70,0.00,,,0.00,WUHU216HW,2013-08-05 06:57:00,